Time;durP1;ratioP1;P1;durP2;ratioP2;P2;SDS_P1;SDS_P2;PMS_P1;PMS_P2;Temp;Humidity;BMP_temperature;BMP_pressure;BME280_temperature;BME280_humidity;BME280_pressure;Samples;Min_cycle;Max_cycle;Signal;HPM_P1;HPM_P2
2021/01/24 00:01:13;;;;;;;43.85;19.70;;;0.00;99.90;;;;;;5000005;28;20129;-75
2021/01/24 00:03:38;;;;;;;42.80;18.70;;;0.00;99.90;;;;;;4997984;28;20716;-75
2021/01/24 00:06:04;;;;;;;45.55;19.48;;;0.10;99.90;;;;;;4995802;28;20034;-75
2021/01/24 00:08:30;;;;;;;52.47;19.48;;;0.10;99.90;;;;;;4995590;28;20495;-75
2021/01/24 00:10:56;;;;;;;42.17;18.65;;;0.00;99.90;;;;;;4982187;28;20033;-75
2021/01/24 00:13:22;;;;;;;44.60;19.13;;;0.10;99.90;;;;;;4999248;28;20144;-75
2021/01/24 00:15:47;;;;;;;49.58;19.98;;;0.10;99.90;;;;;;4998946;28;20497;-75
2021/01/24 00:18:13;;;;;;;48.10;19.85;;;0.10;99.90;;;;;;4981905;28;20037;-75
2021/01/24 00:20:39;;;;;;;46.65;18.58;;;0.00;99.90;;;;;;4996680;28;20045;-75
2021/01/24 00:23:04;;;;;;;45.72;19.42;;;0.00;99.90;;;;;;4998264;28;20486;-75
2021/01/24 00:25:30;;;;;;;46.28;19.98;;;0.00;99.90;;;;;;4998726;28;20025;-75
2021/01/24 00:27:56;;;;;;;49.53;20.77;;;0.00;99.90;;;;;;5000006;28;20038;-75
2021/01/24 00:30:22;;;;;;;42.60;19.08;;;0.00;99.90;;;;;;4998223;28;20037;-75
2021/01/24 00:32:47;;;;;;;42.13;18.40;;;0.00;99.90;;;;;;4996787;28;20030;-75
2021/01/24 00:35:14;;;;;;;46.60;19.35;;;0.00;99.90;;;;;;4980821;28;20544;-75
2021/01/24 00:37:39;;;;;;;43.58;18.92;;;0.00;99.90;;;;;;4999059;28;20272;-76
2021/01/24 00:40:07;;;;;;;46.97;20.90;;;0.00;99.90;;;;;;4996309;28;20506;-75
2021/01/24 00:42:33;;;;;;;46.00;20.38;;;0.10;99.90;;;;;;4981061;28;20034;-75
2021/01/24 00:45:00;;;;;;;46.28;19.23;;;0.20;99.90;;;;;;4998485;28;20970;-79
2021/01/24 00:47:26;;;;;;;51.83;21.27;;;0.20;99.90;;;;;;4997638;28;20037;-77
2021/01/24 00:49:52;;;;;;;44.10;19.13;;;0.20;99.90;;;;;;5000092;28;20501;-77
2021/01/24 00:52:17;;;;;;;46.22;19.52;;;0.20;99.90;;;;;;5003481;28;20026;-78
2021/01/24 00:54:43;;;;;;;45.38;19.02;;;0.20;99.90;;;;;;4993216;28;20026;-78
2021/01/24 00:57:09;;;;;;;43.42;18.90;;;0.20;99.90;;;;;;4996917;28;20034;-78
2021/01/24 00:59:35;;;;;;;43.97;20.02;;;0.20;99.90;;;;;;4978817;28;20035;-78
2021/01/24 01:02:00;;;;;;;42.63;17.80;;;0.20;99.90;;;;;;4993631;28;20041;-78
2021/01/24 01:04:26;;;;;;;45.30;20.40;;;0.20;99.90;;;;;;4997765;28;20038;-78
2021/01/24 01:06:52;;;;;;;41.20;17.85;;;0.10;99.90;;;;;;4997920;28;20038;-78
2021/01/24 01:09:17;;;;;;;41.40;19.52;;;0.10;99.90;;;;;;4997446;28;20104;-78
2021/01/24 01:11:43;;;;;;;42.33;18.42;;;0.10;99.90;;;;;;4998094;28;20083;-78
2021/01/24 01:14:09;;;;;;;42.67;19.50;;;0.10;99.90;;;;;;4997780;28;20578;-78
2021/01/24 01:16:35;;;;;;;40.88;18.20;;;0.20;99.90;;;;;;4980525;28;20029;-77
2021/01/24 01:19:00;;;;;;;42.67;18.58;;;0.20;99.90;;;;;;4975840;28;20749;-78
2021/01/24 01:21:26;;;;;;;43.58;19.17;;;0.20;99.90;;;;;;4997382;28;20033;-77
2021/01/24 01:23:52;;;;;;;42.65;18.65;;;0.20;99.90;;;;;;5013685;28;20136;-78
2021/01/24 01:26:17;;;;;;;37.90;18.17;;;0.20;99.90;;;;;;4996931;28;20692;-77
2021/01/24 01:28:43;;;;;;;41.90;18.55;;;0.20;99.90;;;;;;4999018;28;20032;-78
2021/01/24 01:31:09;;;;;;;41.50;18.50;;;0.20;99.90;;;;;;4996224;28;20402;-77
2021/01/24 01:33:34;;;;;;;41.50;17.98;;;0.20;99.90;;;;;;4998584;28;20041;-77
2021/01/24 01:36:00;;;;;;;42.55;18.88;;;0.30;99.90;;;;;;4980433;28;20065;-78
2021/01/24 01:38:26;;;;;;;42.88;18.73;;;0.30;99.90;;;;;;4997257;28;20561;-77
2021/01/24 01:40:52;;;;;;;43.83;19.20;;;0.30;99.90;;;;;;4993298;28;20483;-78
2021/01/24 01:43:19;;;;;;;39.58;18.20;;;0.20;99.90;;;;;;4993814;28;20049;-77
2021/01/24 01:45:44;;;;;;;41.92;19.08;;;0.20;99.90;;;;;;4996456;28;20129;-78
2021/01/24 01:48:10;;;;;;;42.03;18.48;;;0.20;99.90;;;;;;4995834;28;20034;-78
2021/01/24 01:50:36;;;;;;;43.00;18.00;;;0.20;99.90;;;;;;4996836;28;20043;-77
2021/01/24 01:53:02;;;;;;;41.65;19.67;;;0.20;99.90;;;;;;4994940;28;20149;-77
2021/01/24 01:55:28;;;;;;;41.22;19.02;;;0.20;99.90;;;;;;4980190;28;20540;-78
2021/01/24 01:57:55;;;;;;;42.08;18.73;;;0.20;99.90;;;;;;4998606;28;20034;-77
2021/01/24 02:00:22;;;;;;;38.13;17.52;;;0.20;99.90;;;;;;4998175;28;20141;-77
2021/01/24 02:03:03;;;;;;;39.17;18.35;;;0.10;99.90;;;;;;4998435;28;20037;-77
2021/01/24 02:05:35;;;;;;;41.80;17.60;;;0.20;99.90;;;;;;4998181;28;20044;-77
2021/01/24 02:08:13;;;;;;;40.47;18.65;;;0.20;99.90;;;;;;4996820;28;20029;-77
2021/01/24 02:10:52;;;;;;;43.97;18.85;;;0.20;99.90;;;;;;4977589;28;20562;-77
2021/01/24 02:13:34;;;;;;;42.38;18.17;;;0.20;99.90;;;;;;4977471;28;20789;-77
2021/01/24 02:16:01;;;;;;;45.17;19.63;;;0.30;99.90;;;;;;4989921;28;20037;-77
2021/01/24 02:18:30;;;;;;;42.75;18.17;;;0.30;99.90;;;;;;4998754;28;20536;-77
2021/01/24 02:21:08;;;;;;;44.45;18.80;;;0.30;99.90;;;;;;4999971;28;20049;-78
2021/01/24 02:23:35;;;;;;;44.45;18.52;;;0.30;99.90;;;;;;5014920;28;20034;-77
2021/01/24 02:26:27;;;;;;;41.40;18.42;;;0.40;99.90;;;;;;5000828;28;20064;-78
2021/01/24 02:28:58;;;;;;;42.15;19.20;;;0.40;99.90;;;;;;5012623;28;20038;-78
2021/01/24 02:31:26;;;;;;;39.60;18.63;;;0.40;99.90;;;;;;5000533;28;20077;-78
2021/01/24 02:33:53;;;;;;;41.60;18.58;;;0.40;99.90;;;;;;4984162;28;20042;-78
2021/01/24 02:36:21;;;;;;;41.15;19.13;;;0.40;99.90;;;;;;4983442;28;20132;-78
2021/01/24 02:38:47;;;;;;;42.95;19.23;;;0.40;99.90;;;;;;5001389;28;20049;-77
2021/01/24 02:41:14;;;;;;;42.10;19.40;;;0.40;99.90;;;;;;4998930;28;20030;-77
2021/01/24 02:43:45;;;;;;;41.88;18.60;;;0.40;99.90;;;;;;4983599;28;20034;-77
2021/01/24 02:46:14;;;;;;;41.17;18.83;;;0.40;99.90;;;;;;4999507;28;20108;-76
2021/01/24 02:48:42;;;;;;;42.28;18.95;;;0.40;99.90;;;;;;5000639;28;20033;-77
2021/01/24 02:51:10;;;;;;;39.45;18.00;;;0.40;99.90;;;;;;4984474;28;20033;-77
2021/01/24 02:53:38;;;;;;;44.00;18.65;;;0.50;99.90;;;;;;4999691;28;20096;-77
2021/01/24 02:56:04;;;;;;;39.15;17.33;;;0.40;99.90;;;;;;4996592;28;20037;-77
2021/01/24 02:58:30;;;;;;;41.65;18.65;;;0.40;99.90;;;;;;4999541;28;20133;-77
2021/01/24 03:00:57;;;;;;;42.20;19.38;;;0.40;99.90;;;;;;5000148;28;20046;-77
2021/01/24 03:03:23;;;;;;;42.30;18.33;;;0.30;99.90;;;;;;4999962;28;20859;-76
2021/01/24 03:05:49;;;;;;;37.85;17.00;;;0.30;99.90;;;;;;4978432;28;20121;-77
2021/01/24 03:08:15;;;;;;;38.55;18.75;;;0.30;99.90;;;;;;4999109;28;20072;-79
2021/01/24 03:10:41;;;;;;;37.05;16.95;;;0.30;99.90;;;;;;4989489;28;20042;-79
2021/01/24 03:13:23;;;;;;;44.38;18.40;;;0.30;99.90;;;;;;4988064;28;20052;-77
2021/01/24 03:15:51;;;;;;;41.40;18.23;;;0.40;99.90;;;;;;4987971;28;20038;-79
2021/01/24 03:18:23;;;;;;;42.65;18.05;;;0.40;99.90;;;;;;4989409;28;20124;-79
2021/01/24 03:20:50;;;;;;;39.05;17.95;;;0.40;99.90;;;;;;4994097;28;20144;-77
2021/01/24 03:23:16;;;;;;;41.17;18.48;;;0.40;99.90;;;;;;4999465;28;20040;-79
2021/01/24 03:25:43;;;;;;;40.70;18.45;;;0.40;99.90;;;;;;4999201;28;20029;-78
2021/01/24 03:28:09;;;;;;;38.83;17.27;;;0.40;99.90;;;;;;4983415;28;20034;-79
2021/01/24 03:30:35;;;;;;;48.42;19.77;;;0.50;99.90;;;;;;4999873;28;20147;-78
2021/01/24 03:33:02;;;;;;;41.47;19.25;;;0.50;99.90;;;;;;4998752;28;20030;-78
2021/01/24 03:35:27;;;;;;;41.40;19.23;;;0.60;99.90;;;;;;4998909;28;20648;-78
2021/01/24 03:37:53;;;;;;;40.65;18.63;;;0.60;99.90;;;;;;4992654;28;20045;-78
2021/01/24 03:40:19;;;;;;;39.85;17.95;;;0.60;99.90;;;;;;4990086;28;20144;-78
2021/01/24 03:42:45;;;;;;;40.58;19.50;;;0.60;99.90;;;;;;5001053;28;20029;-78
2021/01/24 03:45:11;;;;;;;38.53;18.13;;;0.60;99.90;;;;;;4998243;28;20030;-78
2021/01/24 03:47:37;;;;;;;48.70;19.60;;;0.60;99.90;;;;;;4988439;28;20033;-78
2021/01/24 03:50:05;;;;;;;40.90;18.48;;;0.50;99.90;;;;;;5001176;28;20069;-78
2021/01/24 03:52:31;;;;;;;40.33;19.02;;;0.50;99.90;;;;;;4998784;28;20037;-78
2021/01/24 03:54:56;;;;;;;40.63;18.52;;;0.50;99.90;;;;;;4999111;28;20038;-77
2021/01/24 03:57:23;;;;;;;41.15;18.33;;;0.50;99.90;;;;;;4982378;28;20038;-78
2021/01/24 03:59:51;;;;;;;44.13;19.50;;;0.50;99.90;;;;;;5023757;28;20113;-78
2021/01/24 04:02:17;;;;;;;37.55;17.45;;;0.50;99.90;;;;;;5015957;28;20034;-78
2021/01/24 04:04:44;;;;;;;39.38;18.45;;;0.50;99.90;;;;;;5000638;28;20022;-77
2021/01/24 04:07:10;;;;;;;36.88;17.33;;;0.40;99.90;;;;;;4999461;28;20030;-78
2021/01/24 04:09:39;;;;;;;38.30;17.50;;;0.40;99.90;;;;;;4984286;28;20065;-78
2021/01/24 04:12:05;;;;;;;39.35;17.83;;;0.50;99.90;;;;;;4995709;28;20084;-78
2021/01/24 04:14:31;;;;;;;37.38;17.88;;;0.50;99.90;;;;;;4992487;28;20494;-79
2021/01/24 04:16:56;;;;;;;39.58;17.40;;;0.60;99.90;;;;;;5015383;28;20049;-78
2021/01/24 04:19:22;;;;;;;42.20;18.15;;;0.60;99.90;;;;;;4995656;28;20058;-79
2021/01/24 04:21:48;;;;;;;39.40;17.08;;;0.60;99.90;;;;;;4990701;28;20564;-79
2021/01/24 04:24:14;;;;;;;37.05;16.98;;;0.60;99.90;;;;;;5006868;28;20940;-78
2021/01/24 04:26:39;;;;;;;37.95;17.75;;;0.60;99.90;;;;;;4997624;28;20033;-78
2021/01/24 04:29:05;;;;;;;40.90;18.75;;;0.70;99.90;;;;;;5000249;28;20465;-78
2021/01/24 04:31:31;;;;;;;43.95;18.42;;;0.70;99.90;;;;;;4999730;28;20753;-78
2021/01/24 04:33:56;;;;;;;34.38;16.83;;;0.60;99.90;;;;;;4999881;28;20040;-78
2021/01/24 04:36:22;;;;;;;40.25;17.20;;;0.60;99.90;;;;;;4997270;28;20041;-78
2021/01/24 04:38:48;;;;;;;36.88;17.00;;;0.70;99.90;;;;;;4998116;28;20042;-78
2021/01/24 04:41:14;;;;;;;39.38;17.95;;;0.70;99.90;;;;;;4999471;28;20201;-78
2021/01/24 04:43:40;;;;;;;38.80;18.00;;;0.70;99.90;;;;;;4998305;28;20034;-78
2021/01/24 04:46:06;;;;;;;38.90;18.00;;;0.70;99.90;;;;;;4980900;28;20038;-78
2021/01/24 04:48:32;;;;;;;41.05;18.55;;;0.70;99.90;;;;;;4998831;28;20451;-79
2021/01/24 04:51:01;;;;;;;42.97;18.75;;;0.70;99.90;;;;;;4999449;28;20116;-78
2021/01/24 04:53:28;;;;;;;33.92;16.88;;;0.70;99.90;;;;;;4981624;28;20046;-79
2021/01/24 04:55:54;;;;;;;37.30;18.55;;;0.80;99.90;;;;;;4998164;28;20030;-78
2021/01/24 04:58:20;;;;;;;36.70;17.17;;;0.80;99.90;;;;;;4980702;28;20069;-78
2021/01/24 05:00:46;;;;;;;37.58;17.83;;;0.80;99.90;;;;;;4998452;28;20093;-78
2021/01/24 05:03:12;;;;;;;37.55;18.20;;;0.80;99.90;;;;;;4998961;28;20524;-78
2021/01/24 05:05:38;;;;;;;36.20;16.67;;;0.80;99.90;;;;;;4997008;28;20463;-78
2021/01/24 05:08:07;;;;;;;34.20;16.38;;;0.90;99.90;;;;;;4995112;28;20475;-78
2021/01/24 05:10:33;;;;;;;34.97;16.90;;;0.90;99.90;;;;;;4997557;28;20030;-78
2021/01/24 05:12:59;;;;;;;30.17;15.23;;;1.00;99.90;;;;;;4999188;28;20560;-78
2021/01/24 05:15:26;;;;;;;31.83;15.23;;;1.00;99.90;;;;;;4980891;28;20144;-78
2021/01/24 05:17:54;;;;;;;40.45;16.63;;;0.90;99.90;;;;;;4999448;28;20034;-78
2021/01/24 05:20:21;;;;;;;36.50;16.83;;;0.90;99.90;;;;;;4994108;28;20091;-78
2021/01/24 05:22:47;;;;;;;34.72;16.10;;;0.90;99.90;;;;;;4997825;28;20793;-78
2021/01/24 05:25:16;;;;;;;32.58;16.30;;;0.90;99.90;;;;;;4997339;28;20038;-78
2021/01/24 05:27:42;;;;;;;34.10;16.20;;;0.80;99.90;;;;;;4997509;28;20563;-78
2021/01/24 05:30:10;;;;;;;39.45;17.60;;;0.90;99.90;;;;;;4981121;28;20038;-78
2021/01/24 05:32:43;;;;;;;42.58;18.25;;;0.80;99.90;;;;;;4997097;28;20138;-78
2021/01/24 05:35:13;;;;;;;41.42;17.92;;;0.80;99.90;;;;;;4994396;28;20108;-78
2021/01/24 05:37:40;;;;;;;44.65;17.77;;;0.80;99.90;;;;;;4987002;28;20045;-78
2021/01/24 05:40:07;;;;;;;39.88;17.60;;;0.80;99.90;;;;;;4991549;28;20041;-79
2021/01/24 05:42:35;;;;;;;42.83;17.75;;;0.70;99.90;;;;;;4996652;28;20065;-78
2021/01/24 05:45:00;;;;;;;35.80;16.17;;;0.70;99.90;;;;;;4997098;28;20664;-79
2021/01/24 05:47:26;;;;;;;39.75;16.27;;;0.80;99.90;;;;;;4980570;28;20038;-79
2021/01/24 05:49:52;;;;;;;38.80;16.10;;;0.70;99.90;;;;;;4998264;28;20037;-79
2021/01/24 05:52:20;;;;;;;37.63;16.10;;;0.70;99.90;;;;;;4980894;28;20045;-78
2021/01/24 05:54:47;;;;;;;40.42;17.10;;;0.70;99.90;;;;;;4995722;28;20030;-79
2021/01/24 05:57:15;;;;;;;39.20;15.45;;;0.70;99.90;;;;;;5013104;28;20084;-79
2021/01/24 05:59:55;;;;;;;38.28;15.90;;;0.70;99.90;;;;;;4996887;28;20095;-79
2021/01/24 06:02:22;;;;;;;37.35;14.52;;;0.80;99.90;;;;;;4996921;28;20070;-79
2021/01/24 06:04:49;;;;;;;31.48;13.43;;;0.80;99.90;;;;;;5000976;28;20513;-78
2021/01/24 06:07:15;;;;;;;30.30;13.13;;;0.80;99.90;;;;;;4999903;28;20687;-79
2021/01/24 06:09:42;;;;;;;29.00;13.25;;;0.80;99.90;;;;;;5007419;28;20084;-78
2021/01/24 06:12:08;;;;;;;33.58;13.68;;;0.90;99.90;;;;;;5015767;28;20778;-79
2021/01/24 06:14:36;;;;;;;29.73;12.65;;;0.90;99.90;;;;;;5003309;28;20148;-79
2021/01/24 06:17:08;;;;;;;33.10;12.02;;;0.90;99.90;;;;;;4996456;28;20529;-78
2021/01/24 06:19:40;;;;;;;28.50;11.45;;;1.00;99.90;;;;;;4997953;28;20843;-78
2021/01/24 06:22:09;;;;;;;30.88;12.27;;;0.90;99.90;;;;;;4993182;28;20144;-78
2021/01/24 06:24:39;;;;;;;27.13;11.98;;;1.00;99.90;;;;;;4997893;28;20034;-78
2021/01/24 06:27:08;;;;;;;29.08;11.75;;;1.00;99.90;;;;;;4979229;28;20112;-78
2021/01/24 06:29:35;;;;;;;23.95;10.77;;;0.90;99.90;;;;;;4999108;28;20107;-78
2021/01/24 06:32:01;;;;;;;25.17;10.57;;;0.90;99.90;;;;;;4991816;28;20042;-78
2021/01/24 06:34:36;;;;;;;26.73;11.18;;;1.00;99.90;;;;;;5003771;28;20068;-78
2021/01/24 06:37:07;;;;;;;25.90;10.73;;;1.00;99.90;;;;;;4995993;28;20057;-78
2021/01/24 06:39:43;;;;;;;27.75;11.25;;;1.00;99.90;;;;;;4996494;28;20768;-79
2021/01/24 06:42:09;;;;;;;28.48;10.68;;;1.00;99.90;;;;;;4995863;28;20037;-79
2021/01/24 06:44:41;;;;;;;26.00;10.98;;;1.00;99.90;;;;;;5001822;28;20037;-78
2021/01/24 06:47:27;;;;;;;24.20;11.02;;;1.00;99.90;;;;;;5004410;28;20041;-78
2021/01/24 06:49:53;;;;;;;26.85;11.93;;;1.10;99.90;;;;;;4990170;28;20663;-79
2021/01/24 06:52:21;;;;;;;25.17;11.15;;;1.00;99.90;;;;;;4981664;28;20053;-78
2021/01/24 06:54:48;;;;;;;26.02;11.45;;;1.00;99.90;;;;;;4990397;28;20041;-78
2021/01/24 06:57:14;;;;;;;29.13;11.45;;;1.10;99.90;;;;;;4986818;28;20038;-78
2021/01/24 06:59:40;;;;;;;24.33;10.57;;;1.10;99.90;;;;;;5000274;28;20038;-78
2021/01/24 07:02:24;;;;;;;24.73;10.05;;;1.10;99.90;;;;;;4996744;28;20042;-78
2021/01/24 07:05:09;;;;;;;23.73;10.43;;;1.10;99.90;;;;;;4979787;28;20058;-77
2021/01/24 07:07:37;;;;;;;25.75;10.82;;;1.10;99.90;;;;;;5009719;28;20034;-78
2021/01/24 07:10:05;;;;;;;24.52;10.52;;;1.10;99.90;;;;;;4999808;28;20077;-78
2021/01/24 07:12:40;;;;;;;25.40;10.32;;;1.10;99.90;;;;;;4993723;28;20026;-77
2021/01/24 07:15:10;;;;;;;24.00;9.57;;;1.10;99.90;;;;;;4982942;28;20034;-78
2021/01/24 07:17:37;;;;;;;26.23;10.48;;;1.10;99.90;;;;;;5002009;28;20129;-78
2021/01/24 07:20:05;;;;;;;21.02;9.63;;;1.10;99.90;;;;;;5010881;28;20038;-78
2021/01/24 07:22:31;;;;;;;23.83;10.32;;;1.10;99.90;;;;;;4967139;28;20033;-78
2021/01/24 07:24:57;;;;;;;23.08;9.63;;;1.10;99.90;;;;;;4997187;28;20691;-75
2021/01/24 07:27:26;;;;;;;21.73;9.77;;;1.20;99.90;;;;;;5007244;28;20064;-74
2021/01/24 07:29:52;;;;;;;21.40;9.93;;;1.10;99.90;;;;;;5006199;28;20120;-75
2021/01/24 07:32:20;;;;;;;20.35;9.27;;;1.10;99.90;;;;;;5011114;28;20041;-74
2021/01/24 07:34:48;;;;;;;22.17;8.68;;;1.10;99.90;;;;;;5011353;28;20043;-75
2021/01/24 07:37:15;;;;;;;20.35;8.48;;;1.10;99.90;;;;;;5003722;28;20034;-81
2021/01/24 07:39:41;;;;;;;20.65;8.93;;;1.10;99.90;;;;;;5010546;28;20034;-75
2021/01/24 07:42:08;;;;;;;17.70;8.45;;;1.10;99.90;;;;;;5003457;28;20487;-75
2021/01/24 07:44:37;;;;;;;21.40;8.27;;;1.30;99.90;;;;;;5004896;28;20055;-76
2021/01/24 07:47:03;;;;;;;27.08;12.73;;;1.20;99.90;;;;;;5007967;28;20080;-78
2021/01/24 07:49:28;;;;;;;19.15;8.10;;;1.20;99.90;;;;;;4991588;28;20033;-76
2021/01/24 07:51:54;;;;;;;21.52;8.95;;;1.20;99.90;;;;;;4997683;28;20406;-77
2021/01/24 07:54:20;;;;;;;18.35;7.68;;;1.20;99.90;;;;;;4998064;28;20042;-76
2021/01/24 07:56:46;;;;;;;18.30;8.18;;;1.20;99.90;;;;;;5001457;28;20040;-77
2021/01/24 07:59:12;;;;;;;21.83;8.05;;;1.20;99.90;;;;;;5000676;28;20033;-77
2021/01/24 08:01:39;;;;;;;17.63;7.15;;;1.20;99.90;;;;;;5001804;28;20104;-79
2021/01/24 08:04:05;;;;;;;17.48;8.15;;;1.20;99.90;;;;;;5002704;28;20128;-78
2021/01/24 08:06:38;;;;;;;17.08;7.30;;;1.20;99.90;;;;;;5002628;28;20033;-78
2021/01/24 08:09:06;;;;;;;15.30;7.10;;;1.20;99.90;;;;;;5034509;28;20026;-79
2021/01/24 08:11:32;;;;;;;25.63;11.32;;;1.30;99.90;;;;;;5011117;28;20553;-79
2021/01/24 08:13:59;;;;;;;15.10;6.55;;;1.30;99.90;;;;;;5006446;28;20040;-76
2021/01/24 08:16:33;;;;;;;14.52;6.95;;;1.30;99.90;;;;;;5013704;28;20407;-77
2021/01/24 08:19:01;;;;;;;14.38;6.25;;;1.30;99.90;;;;;;5001097;28;20133;-77
2021/01/24 08:21:27;;;;;;;17.02;6.53;;;1.30;99.90;;;;;;5001847;28;20624;-78
2021/01/24 08:23:53;;;;;;;14.70;5.63;;;1.30;99.90;;;;;;4985376;28;20030;-78
2021/01/24 08:26:20;;;;;;;12.50;5.90;;;1.30;99.90;;;;;;5009246;28;20482;-77
2021/01/24 08:28:47;;;;;;;16.58;6.22;;;1.40;99.90;;;;;;4987648;28;20034;-76
2021/01/24 08:31:18;;;;;;;14.98;5.85;;;1.50;99.90;;;;;;5005318;28;20038;-76
2021/01/24 08:33:44;;;;;;;15.20;6.60;;;1.50;99.90;;;;;;5004335;28;20445;-77
2021/01/24 08:36:19;;;;;;;14.38;5.88;;;1.50;99.90;;;;;;4994772;28;20536;-77
2021/01/24 08:38:46;;;;;;;14.20;6.47;;;1.40;99.90;;;;;;5009007;28;20040;-76
2021/01/24 08:41:13;;;;;;;12.10;5.65;;;1.40;99.90;;;;;;5023445;28;20744;-76
2021/01/24 08:43:40;;;;;;;13.43;5.13;;;1.50;99.90;;;;;;5006689;28;20041;-76
2021/01/24 08:46:21;;;;;;;15.00;5.50;;;1.40;99.90;;;;;;5007574;28;20040;-77
2021/01/24 08:49:04;;;;;;;13.60;5.38;;;1.50;99.90;;;;;;5002969;28;20042;-77
2021/01/24 08:51:47;;;;;;;11.27;5.57;;;1.60;99.90;;;;;;5009924;28;20038;-75
2021/01/24 08:54:33;;;;;;;32.78;13.73;;;1.60;99.90;;;;;;4997624;28;20814;-79
2021/01/24 08:57:07;;;;;;;11.18;5.50;;;1.60;99.90;;;;;;5011312;28;20045;-79
2021/01/24 08:59:33;;;;;;;11.82;4.97;;;1.70;99.90;;;;;;5008333;28;20056;-77
2021/01/24 09:01:58;;;;;;;13.95;5.70;;;1.70;99.90;;;;;;5011090;28;20037;-76
2021/01/24 09:04:27;;;;;;;13.20;6.20;;;1.70;99.90;;;;;;5029216;28;20049;-79
2021/01/24 09:07:04;;;;;;;11.63;5.40;;;1.70;99.90;;;;;;5003404;28;20529;-79
2021/01/24 09:09:31;;;;;;;11.48;6.03;;;1.70;99.90;;;;;;4987098;28;20033;-80
2021/01/24 09:11:58;;;;;;;14.75;5.47;;;1.80;99.90;;;;;;4981174;28;20045;-79
2021/01/24 09:14:24;;;;;;;12.13;5.13;;;1.90;99.90;;;;;;4988923;28;20040;-79
2021/01/24 09:17:00;;;;;;;11.80;5.63;;;1.90;99.90;;;;;;5029160;28;20041;-79
2021/01/24 09:19:26;;;;;;;16.63;5.57;;;1.80;99.90;;;;;;5016466;28;20557;-79
2021/01/24 09:21:53;;;;;;;10.20;5.10;;;1.80;99.90;;;;;;4985675;28;20038;-79
2021/01/24 09:24:18;;;;;;;8.20;4.10;;;1.80;99.90;;;;;;4998758;28;20037;-79
2021/01/24 09:26:46;;;;;;;12.07;4.72;;;1.80;99.90;;;;;;5009464;28;20501;-79
2021/01/24 09:29:15;;;;;;;12.73;4.30;;;1.80;99.90;;;;;;5007455;28;20547;-79
2021/01/24 09:31:41;;;;;;;10.95;4.53;;;1.80;99.90;;;;;;5010588;28;20076;-79
2021/01/24 09:34:07;;;;;;;11.98;4.75;;;1.90;99.90;;;;;;4997270;28;20125;-79
2021/01/24 09:36:33;;;;;;;12.27;4.78;;;1.90;99.90;;;;;;5015250;28;20041;-79
2021/01/24 09:38:59;;;;;;;8.80;4.40;;;1.80;99.90;;;;;;5009815;28;20517;-79
2021/01/24 09:41:25;;;;;;;8.10;4.68;;;1.90;99.90;;;;;;4994226;28;20036;-79
2021/01/24 09:43:51;;;;;;;6.95;3.78;;;1.90;99.90;;;;;;4980875;28;20041;-79
2021/01/24 09:46:17;;;;;;;12.45;5.07;;;1.90;99.90;;;;;;5005220;28;20038;-79
2021/01/24 09:48:42;;;;;;;9.82;4.85;;;2.00;99.90;;;;;;4982561;28;20138;-80
2021/01/24 09:51:09;;;;;;;10.77;4.85;;;2.10;99.90;;;;;;5002185;28;20740;-79
2021/01/24 09:53:38;;;;;;;10.23;5.07;;;2.10;99.90;;;;;;5014290;28;20033;-79
2021/01/24 09:56:05;;;;;;;9.52;4.60;;;2.20;99.90;;;;;;4996891;28;20137;-79
2021/01/24 09:58:31;;;;;;;11.93;5.15;;;2.30;99.90;;;;;;5006083;28;20037;-79
2021/01/24 10:00:57;;;;;;;8.00;4.72;;;2.40;99.90;;;;;;5000647;28;20529;-79
2021/01/24 10:03:22;;;;;;;11.57;4.75;;;2.40;99.90;;;;;;4988509;28;20041;-79
2021/01/24 10:05:49;;;;;;;8.93;4.22;;;2.50;99.90;;;;;;5006387;28;20072;-80
2021/01/24 10:08:15;;;;;;;7.30;4.53;;;2.50;99.90;;;;;;5003977;28;20029;-79
2021/01/24 10:10:41;;;;;;;5.78;3.90;;;2.50;99.90;;;;;;4998928;28;20135;-79
2021/01/24 10:13:07;;;;;;;7.72;3.55;;;2.60;99.90;;;;;;4980530;28;20033;-79
2021/01/24 10:15:32;;;;;;;7.15;3.42;;;2.50;99.90;;;;;;4994672;28;20038;-79
2021/01/24 10:17:58;;;;;;;6.95;3.15;;;2.60;99.90;;;;;;4989541;28;20041;-79
2021/01/24 10:20:23;;;;;;;7.20;4.25;;;2.50;99.90;;;;;;4988337;28;20148;-79
2021/01/24 10:22:49;;;;;;;6.10;3.88;;;2.60;99.90;;;;;;4988209;28;20176;-79
2021/01/24 10:25:15;;;;;;;7.65;4.15;;;2.60;99.90;;;;;;4979520;28;20034;-80
2021/01/24 10:27:41;;;;;;;7.38;4.30;;;2.60;99.90;;;;;;5001810;28;20799;-83
2021/01/24 10:30:07;;;;;;;6.25;3.75;;;2.60;99.90;;;;;;4997929;28;20037;-80
2021/01/24 10:32:33;;;;;;;8.88;3.92;;;2.50;99.90;;;;;;4995563;28;20041;-82
2021/01/24 10:34:59;;;;;;;5.88;3.75;;;2.40;99.90;;;;;;4979843;28;20030;-77
2021/01/24 10:37:24;;;;;;;57.58;23.38;;;2.30;99.90;;;;;;4985532;28;20577;-82
2021/01/24 10:39:50;;;;;;;6.55;3.55;;;2.30;99.90;;;;;;5006139;28;20113;-73
2021/01/24 10:42:17;;;;;;;6.28;3.90;;;2.30;99.90;;;;;;5001030;28;20528;-74
2021/01/24 10:44:44;;;;;;;5.68;3.75;;;2.40;99.90;;;;;;4989387;28;20026;-74
2021/01/24 10:47:10;;;;;;;7.35;4.30;;;2.40;99.90;;;;;;5003180;28;20099;-74
2021/01/24 10:49:36;;;;;;;6.22;3.95;;;2.40;99.90;;;;;;5006248;28;20033;-75
2021/01/24 10:52:01;;;;;;;8.43;4.10;;;2.40;99.90;;;;;;5016991;28;20037;-77
2021/01/24 10:54:27;;;;;;;6.97;4.80;;;2.30;99.90;;;;;;5013455;28;20041;-75
2021/01/24 10:56:53;;;;;;;6.68;4.45;;;2.30;99.90;;;;;;5027856;28;20029;-75
2021/01/24 10:59:18;;;;;;;7.88;4.63;;;2.30;99.90;;;;;;4993795;28;20072;-72
2021/01/24 11:01:44;;;;;;;5.78;4.20;;;2.30;99.90;;;;;;4990853;28;20037;-75
2021/01/24 11:04:10;;;;;;;9.80;5.20;;;2.30;99.90;;;;;;5018894;28;20034;-75
2021/01/24 11:06:35;;;;;;;11.88;5.95;;;2.40;99.90;;;;;;4988236;28;20068;-75
2021/01/24 11:09:01;;;;;;;9.07;5.35;;;2.40;99.90;;;;;;4993971;28;20033;-75
2021/01/24 11:11:27;;;;;;;12.30;7.15;;;2.50;99.90;;;;;;5007277;28;20530;-75
2021/01/24 11:13:52;;;;;;;8.07;5.18;;;2.50;99.90;;;;;;5004675;28;20501;-74
2021/01/24 11:16:18;;;;;;;7.90;5.05;;;2.60;99.90;;;;;;5015991;28;20044;-74
2021/01/24 11:18:44;;;;;;;6.75;4.60;;;2.50;99.90;;;;;;5010852;28;20137;-75
2021/01/24 11:21:09;;;;;;;7.40;5.00;;;2.50;99.90;;;;;;5009896;28;20038;-74
2021/01/24 11:23:35;;;;;;;11.35;6.22;;;2.40;99.90;;;;;;5006155;28;20033;-75
2021/01/24 11:26:01;;;;;;;17.55;9.27;;;2.50;99.90;;;;;;4990069;28;20173;-75
2021/01/24 11:28:28;;;;;;;11.68;6.57;;;2.50;99.90;;;;;;5009707;28;20136;-75
2021/01/24 11:30:54;;;;;;;9.30;5.43;;;2.50;99.90;;;;;;5015490;28;20030;-74
2021/01/24 11:33:19;;;;;;;9.50;5.35;;;2.40;99.90;;;;;;5001289;28;20034;-73
2021/01/24 11:35:45;;;;;;;9.88;6.22;;;2.40;99.90;;;;;;5001282;28;20038;-74
2021/01/24 11:38:11;;;;;;;8.88;6.40;;;2.50;99.90;;;;;;4997926;28;20049;-74
2021/01/24 11:40:36;;;;;;;9.82;6.32;;;2.60;99.90;;;;;;4993069;28;20036;-75
2021/01/24 11:43:03;;;;;;;9.40;5.30;;;2.50;99.90;;;;;;5001425;28;20032;-75
2021/01/24 11:45:29;;;;;;;9.90;6.03;;;2.50;99.90;;;;;;4998962;28;20022;-75
2021/01/24 11:47:55;;;;;;;10.20;5.88;;;2.30;99.90;;;;;;5002838;28;20569;-74
2021/01/24 11:50:21;;;;;;;8.48;5.70;;;2.40;99.90;;;;;;5000485;28;20037;-77
2021/01/24 11:52:47;;;;;;;10.40;5.93;;;2.40;99.90;;;;;;5016874;28;20098;-75
2021/01/24 11:55:12;;;;;;;9.52;6.35;;;2.40;99.90;;;;;;5033104;28;20888;-74
2021/01/24 11:57:38;;;;;;;9.07;5.90;;;2.50;99.90;;;;;;5005406;28;20028;-75
2021/01/24 12:00:05;;;;;;;7.85;5.53;;;2.50;99.90;;;;;;5031870;28;20029;-75
2021/01/24 12:02:31;;;;;;;8.32;5.60;;;2.70;99.90;;;;;;5007258;28;20034;-75
2021/01/24 12:04:57;;;;;;;9.23;6.00;;;2.70;99.90;;;;;;5014691;28;20547;-75
2021/01/24 12:07:23;;;;;;;9.77;6.00;;;2.70;99.90;;;;;;5010469;28;20077;-75
2021/01/24 12:09:49;;;;;;;9.30;5.47;;;2.70;99.90;;;;;;5028442;28;20418;-74
2021/01/24 12:12:14;;;;;;;13.27;6.03;;;2.70;99.90;;;;;;5006998;28;20037;-75
2021/01/24 12:14:40;;;;;;;8.32;5.70;;;2.50;99.90;;;;;;5014724;28;20029;-74
2021/01/24 12:17:06;;;;;;;8.88;5.72;;;2.60;99.90;;;;;;5011616;28;20103;-75
2021/01/24 12:19:31;;;;;;;9.10;5.25;;;2.60;99.90;;;;;;5016110;28;20557;-75
2021/01/24 12:21:57;;;;;;;9.77;5.43;;;2.70;99.90;;;;;;5016069;28;20386;-75
2021/01/24 12:24:23;;;;;;;7.85;4.85;;;2.60;99.90;;;;;;5005869;28;20038;-75
2021/01/24 12:26:48;;;;;;;15.35;8.45;;;2.60;99.90;;;;;;4999584;28;20061;-75
2021/01/24 12:29:14;;;;;;;8.43;5.45;;;2.50;99.90;;;;;;5011287;28;20045;-75
2021/01/24 12:31:40;;;;;;;13.93;7.22;;;2.50;99.90;;;;;;5011050;28;20045;-75
2021/01/24 12:34:06;;;;;;;7.32;4.95;;;2.50;99.90;;;;;;5011974;28;20029;-75
2021/01/24 12:36:32;;;;;;;6.85;4.50;;;2.30;99.90;;;;;;5000615;28;20048;-76
2021/01/24 12:38:58;;;;;;;7.90;5.03;;;2.30;99.90;;;;;;5002416;28;20052;-75
2021/01/24 12:41:23;;;;;;;8.63;4.95;;;2.30;99.90;;;;;;5001001;28;20656;-76
2021/01/24 12:43:49;;;;;;;9.85;5.68;;;2.30;99.90;;;;;;5005124;28;20029;-76